Time;durP1;ratioP1;P1;durP2;ratioP2;P2;SDS_P1;SDS_P2;PMS_P1;PMS_P2;Temp;Humidity;BMP_temperature;BMP_pressure;BME280_temperature;BME280_humidity;BME280_pressure;Samples;Min_cycle;Max_cycle;Signal;HPM_P1;HPM_P2
2022/01/30 00:02:16;;;;;;;50.25;10.52;;;;;;;;;;5077757;28;20029;-85
2022/01/30 00:05:22;;;;;;;42.35;10.82;;;;;;;;;;5079370;28;20036;-85
2022/01/30 00:07:48;;;;;;;73.20;11.93;;;;;;;;;;5055837;28;20040;-84
2022/01/30 00:10:16;;;;;;;64.65;12.40;;;;;;;;;;5079241;28;20028;-85
2022/01/30 00:12:55;;;;;;;34.55;12.15;;;;;;;;;;5081411;28;20020;-84
2022/01/30 00:15:39;;;;;;;21.88;12.27;;;;;;;;;;5080722;28;20024;-85
2022/01/30 00:21:12;;;;;;;12.68;8.85;;;;;;;;;;5059704;28;20022;-84
2022/01/30 00:26:33;;;;;;;11.25;6.82;;;;;;;;;;5079966;28;20039;-83
2022/01/30 00:28:59;;;;;;;10.32;6.95;;;;;;;;;;5081004;28;20027;-84
2022/01/30 00:31:44;;;;;;;9.20;6.22;;;;;;;;;;5080671;28;20020;-85
2022/01/30 00:34:29;;;;;;;9.35;6.50;;;;;;;;;;5081241;28;20146;-84
2022/01/30 00:36:55;;;;;;;12.40;6.93;;;;;;;;;;5081782;28;20035;-84
2022/01/30 00:39:21;;;;;;;9.50;6.18;;;;;;;;;;5082583;28;20051;-84
2022/01/30 00:42:23;;;;;;;;;;;;;;;;;;;;;
2022/01/30 00:44:55;;;;;;;8.00;5.05;;;;;;;;;;5081809;28;20548;-85
2022/01/30 00:47:21;;;;;;;12.15;7.03;;;;;;;;;;5081395;28;20028;-85
2022/01/30 00:49:58;;;;;;;13.27;7.85;;;;;;;;;;5079219;28;20051;-84
2022/01/30 00:52:24;;;;;;;12.70;8.27;;;;;;;;;;5089197;28;20036;-86
2022/01/30 00:55:06;;;;;;;14.32;9.05;;;;;;;;;;5097254;28;20028;-86
2022/01/30 00:57:32;;;;;;;13.68;9.02;;;;;;;;;;5086928;28;20052;-84
2022/01/30 00:59:59;;;;;;;13.40;8.77;;;;;;;;;;5080786;28;20052;-84
2022/01/30 01:02:25;;;;;;;14.80;8.13;;;;;;;;;;5081569;28;20035;-85
2022/01/30 01:07:59;;;;;;;9.05;6.63;;;;;;;;;;5037554;28;20029;-86
2022/01/30 01:25:10;;;;;;;13.27;7.38;;;;;;;;;;5043174;28;20094;-84
2022/01/30 01:27:38;;;;;;;14.38;8.63;;;;;;;;;;5077363;28;20032;-85
2022/01/30 01:30:04;;;;;;;14.00;8.88;;;;;;;;;;5059875;28;20025;-83
2022/01/30 01:32:30;;;;;;;14.18;9.40;;;;;;;;;;5060429;28;20048;-84
2022/01/30 01:34:56;;;;;;;15.25;9.25;;;;;;;;;;5061628;28;20496;-84
2022/01/30 01:37:22;;;;;;;19.33;10.63;;;;;;;;;;5060204;28;20112;-84
2022/01/30 01:39:49;;;;;;;15.27;10.07;;;;;;;;;;5069569;28;20031;-82
2022/01/30 01:42:16;;;;;;;17.55;10.30;;;;;;;;;;5096724;28;20033;-85
2022/01/30 01:44:48;;;;;;;14.73;9.93;;;;;;;;;;5084699;28;20005;-84
2022/01/30 01:47:16;;;;;;;19.83;10.27;;;;;;;;;;5084649;28;20024;-84
2022/01/30 01:49:42;;;;;;;15.40;9.82;;;;;;;;;;5079389;28;20027;-83
2022/01/30 01:54:45;;;;;;;21.35;11.00;;;;;;;;;;5080476;28;20115;-84
2022/01/30 01:57:11;;;;;;;23.95;12.15;;;;;;;;;;5076849;28;20103;-83
2022/01/30 01:59:39;;;;;;;19.60;10.77;;;;;;;;;;5078071;28;20049;-82
2022/01/30 02:02:06;;;;;;;18.45;10.57;;;;;;;;;;5089433;28;20021;-82
2022/01/30 02:04:32;;;;;;;16.77;10.68;;;;;;;;;;5065508;28;20025;-84
2022/01/30 02:09:50;;;;;;;22.15;10.13;;;;;;;;;;5048433;28;20404;-83
2022/01/30 02:12:21;;;;;;;16.33;9.40;;;;;;;;;;5080856;28;20032;-83
2022/01/30 02:15:05;;;;;;;;;;;;;;;;;;5087721;28;20028;-83
2022/01/30 02:25:57;;;;;;;14.30;9.05;;;;;;;;;;5084442;28;20128;-82
2022/01/30 02:28:25;;;;;;;23.05;10.95;;;;;;;;;;5084253;28;20028;-84
2022/01/30 02:31:03;;;;;;;16.15;10.23;;;;;;;;;;5084362;28;20021;-83
2022/01/30 02:33:29;;;;;;;22.75;11.07;;;;;;;;;;5085904;28;20020;-82
2022/01/30 02:35:56;;;;;;;22.85;12.73;;;;;;;;;;5085747;28;20025;-83
2022/01/30 02:38:22;;;;;;;27.70;11.55;;;;;;;;;;5085839;28;20091;-83
2022/01/30 02:40:50;;;;;;;21.30;12.25;;;;;;;;;;5084866;28;20035;-82
2022/01/30 02:43:21;;;;;;;20.85;11.13;;;;;;;;;;5100982;28;20024;-82
2022/01/30 02:46:00;;;;;;;22.92;12.38;;;;;;;;;;5086819;28;20464;-83
2022/01/30 02:48:33;;;;;;;19.92;11.88;;;;;;;;;;5087068;28;20098;-83
2022/01/30 02:51:12;;;;;;;24.90;12.27;;;;;;;;;;5086898;28;20028;-82
2022/01/30 02:53:42;;;;;;;25.92;12.45;;;;;;;;;;5086021;28;20021;-82
2022/01/30 02:56:08;;;;;;;23.70;12.47;;;;;;;;;;5087313;28;20092;-83
2022/01/30 02:58:34;;;;;;;21.15;11.65;;;;;;;;;;5085793;28;20025;-82
2022/01/30 03:01:00;;;;;;;26.23;11.70;;;;;;;;;;5085187;28;20096;-83
2022/01/30 03:03:27;;;;;;;26.25;11.20;;;;;;;;;;5086615;28;20027;-83
2022/01/30 03:05:53;;;;;;;19.77;10.82;;;;;;;;;;5085755;28;20076;-83
2022/01/30 03:08:19;;;;;;;24.83;10.57;;;;;;;;;;5084944;28;20033;-82
2022/01/30 03:10:45;;;;;;;23.75;10.75;;;;;;;;;;5085883;28;20058;-82
2022/01/30 03:13:11;;;;;;;20.15;9.80;;;;;;;;;;5084527;28;20032;-83
2022/01/30 03:15:37;;;;;;;22.77;9.48;;;;;;;;;;5084907;28;20024;-83
2022/01/30 03:18:03;;;;;;;21.23;8.93;;;;;;;;;;5085844;28;20404;-83
2022/01/30 03:20:29;;;;;;;16.70;8.32;;;;;;;;;;5083401;28;20031;-84
2022/01/30 03:22:59;;;;;;;14.60;8.38;;;;;;;;;;5086193;28;20062;-84
2022/01/30 03:25:25;;;;;;;20.80;8.00;;;;;;;;;;5091863;28;20515;-84
2022/01/30 03:27:52;;;;;;;30.05;7.97;;;;;;;;;;5095910;28;20032;-85
2022/01/30 03:30:25;;;;;;;18.40;7.05;;;;;;;;;;5089340;28;20032;-84
2022/01/30 03:32:53;;;;;;;22.20;8.60;;;;;;;;;;5084041;28;20033;-82
2022/01/30 03:35:19;;;;;;;22.02;7.65;;;;;;;;;;5083213;28;20108;-83
2022/01/30 03:37:45;;;;;;;17.48;6.63;;;;;;;;;;5084768;28;20104;-83
2022/01/30 03:40:11;;;;;;;18.48;6.15;;;;;;;;;;5084845;28;20043;-83
2022/01/30 03:42:38;;;;;;;28.83;6.97;;;;;;;;;;5085274;28;20028;-83
2022/01/30 03:45:04;;;;;;;30.48;6.30;;;;;;;;;;5086146;28;20040;-81
2022/01/30 03:47:30;;;;;;;27.88;6.25;;;;;;;;;;5086183;28;20078;-82
2022/01/30 03:49:56;;;;;;;32.20;6.70;;;;;;;;;;5089319;28;20032;-83
2022/01/30 03:52:22;;;;;;;21.00;5.90;;;;;;;;;;5075503;28;20487;-82
2022/01/30 03:54:48;;;;;;;30.58;6.20;;;;;;;;;;5077838;28;20021;-82
2022/01/30 03:57:14;;;;;;;20.52;5.60;;;;;;;;;;5080989;28;20021;-82
2022/01/30 03:59:40;;;;;;;22.38;5.43;;;;;;;;;;5081467;28;20029;-82
2022/01/30 04:02:06;;;;;;;24.70;5.63;;;;;;;;;;5082902;28;20050;-82
2022/01/30 04:04:33;;;;;;;27.88;6.10;;;;;;;;;;5082930;28;20434;-83
2022/01/30 04:06:59;;;;;;;12.40;4.18;;;;;;;;;;5082860;28;20020;-82
2022/01/30 04:09:26;;;;;;;26.25;5.97;;;;;;;;;;5082899;28;20484;-83
2022/01/30 04:11:52;;;;;;;21.30;4.75;;;;;;;;;;5084658;28;20041;-83
2022/01/30 04:14:18;;;;;;;18.05;4.70;;;;;;;;;;5085800;28;20024;-83
2022/01/30 04:16:44;;;;;;;18.98;5.55;;;;;;;;;;5084880;28;20052;-82
2022/01/30 04:19:10;;;;;;;24.38;5.20;;;;;;;;;;5085376;28;20029;-82
2022/01/30 04:21:37;;;;;;;34.00;5.07;;;;;;;;;;5082975;28;20025;-82
2022/01/30 04:24:03;;;;;;;23.88;4.78;;;;;;;;;;5083932;28;20040;-82
2022/01/30 04:26:29;;;;;;;19.85;5.07;;;;;;;;;;5083696;28;20516;-82
2022/01/30 04:28:55;;;;;;;20.00;4.68;;;;;;;;;;5084232;28;20033;-83
2022/01/30 04:31:21;;;;;;;35.80;6.00;;;;;;;;;;5083435;28;20107;-82
2022/01/30 04:33:48;;;;;;;29.42;5.38;;;;;;;;;;5084137;28;20084;-82
2022/01/30 04:36:19;;;;;;;31.95;6.20;;;;;;;;;;5084691;28;20032;-82
2022/01/30 04:57:49;;;;;;;30.25;5.22;;;;;;;;;;5081225;28;20020;-82
2022/01/30 05:00:27;;;;;;;28.77;6.22;;;;;;;;;;5080611;28;20040;-82
2022/01/30 05:03:18;;;;;;;31.20;6.22;;;;;;;;;;5081720;28;20025;-82
2022/01/30 05:05:57;;;;;;;28.63;6.63;;;;;;;;;;5082647;28;20103;-83
2022/01/30 05:08:24;;;;;;;34.60;6.07;;;;;;;;;;5082153;28;20060;-82
2022/01/30 05:10:50;;;;;;;24.08;6.35;;;;;;;;;;5080766;28;20535;-82
2022/01/30 05:13:20;;;;;;;28.83;6.45;;;;;;;;;;5082174;28;20035;-83
2022/01/30 05:15:46;;;;;;;27.70;6.97;;;;;;;;;;5082369;28;20040;-83
2022/01/30 05:18:23;;;;;;;29.92;7.28;;;;;;;;;;5081613;28;20461;-83
2022/01/30 05:20:49;;;;;;;22.38;6.55;;;;;;;;;;5081576;28;20021;-83
2022/01/30 05:23:16;;;;;;;45.15;7.88;;;;;;;;;;5080613;28;20070;-83
2022/01/30 05:25:43;;;;;;;30.05;7.85;;;;;;;;;;5080426;28;20552;-84
2022/01/30 05:28:09;;;;;;;29.80;7.40;;;;;;;;;;5084234;28;20037;-85
2022/01/30 05:30:36;;;;;;;25.77;7.30;;;;;;;;;;5097664;28;20032;-84
2022/01/30 05:33:02;;;;;;;40.03;7.93;;;;;;;;;;5096871;28;20009;-83
2022/01/30 05:35:29;;;;;;;36.42;9.32;;;;;;;;;;5089281;28;20029;-83
2022/01/30 05:37:58;;;;;;;39.63;8.85;;;;;;;;;;5089552;28;20123;-83
2022/01/30 05:40:24;;;;;;;26.42;7.32;;;;;;;;;;5089186;28;20092;-82
2022/01/30 05:42:50;;;;;;;39.30;8.43;;;;;;;;;;5089041;28;20031;-84
2022/01/30 05:45:28;;;;;;;30.20;7.63;;;;;;;;;;5088238;28;20088;-84
2022/01/30 05:48:03;;;;;;;28.67;7.50;;;;;;;;;;5088237;28;20047;-83
2022/01/30 05:50:29;;;;;;;32.28;8.43;;;;;;;;;;5088678;28;20028;-83
2022/01/30 05:52:55;;;;;;;38.72;9.13;;;;;;;;;;5088398;28;20033;-81
2022/01/30 05:55:21;;;;;;;27.85;7.38;;;;;;;;;;5076602;28;20090;-83
2022/01/30 05:57:47;;;;;;;35.17;6.85;;;;;;;;;;5076997;28;20416;-83
2022/01/30 06:00:15;;;;;;;40.17;8.10;;;;;;;;;;5079274;28;20063;-83
2022/01/30 06:02:44;;;;;;;24.60;7.32;;;;;;;;;;5080392;28;20021;-83
2022/01/30 06:05:10;;;;;;;26.02;7.38;;;;;;;;;;5081608;28;20400;-83
2022/01/30 06:07:46;;;;;;;27.88;7.78;;;;;;;;;;5081133;28;20036;-83
2022/01/30 06:10:12;;;;;;;29.67;7.50;;;;;;;;;;5084149;28;20029;-83
2022/01/30 06:12:38;;;;;;;39.33;8.02;;;;;;;;;;5084644;28;20096;-83
2022/01/30 06:15:05;;;;;;;33.38;7.15;;;;;;;;;;5087187;28;20025;-83
2022/01/30 06:17:31;;;;;;;30.55;7.22;;;;;;;;;;5085079;28;20040;-83
2022/01/30 06:19:57;;;;;;;32.58;7.80;;;;;;;;;;5086699;28;20036;-83
2022/01/30 06:22:22;;;;;;;24.58;7.78;;;;;;;;;;5085516;28;20016;-83
2022/01/30 06:24:48;;;;;;;34.05;8.13;;;;;;;;;;5086617;28;20094;-83
2022/01/30 06:27:14;;;;;;;34.67;7.50;;;;;;;;;;5085455;28;20480;-83
2022/01/30 06:29:40;;;;;;;25.48;7.50;;;;;;;;;;5086084;28;20029;-83
2022/01/30 06:32:07;;;;;;;41.95;9.02;;;;;;;;;;5086673;28;20024;-83
2022/01/30 06:34:33;;;;;;;33.42;7.50;;;;;;;;;;5084686;28;20028;-83
2022/01/30 06:36:59;;;;;;;35.90;8.85;;;;;;;;;;5085802;28;20024;-83
2022/01/30 06:39:25;;;;;;;29.65;7.57;;;;;;;;;;5086580;28;20080;-82
2022/01/30 06:41:52;;;;;;;27.45;7.43;;;;;;;;;;5086213;28;20025;-82
2022/01/30 06:44:18;;;;;;;31.33;7.22;;;;;;;;;;5085830;28;20040;-83
2022/01/30 06:46:44;;;;;;;35.53;7.30;;;;;;;;;;5085045;28;20024;-81
2022/01/30 06:49:10;;;;;;;29.88;7.25;;;;;;;;;;5084984;28;20114;-81
2022/01/30 06:51:36;;;;;;;26.02;7.38;;;;;;;;;;5082663;28;20407;-82
2022/01/30 06:54:02;;;;;;;36.78;7.40;;;;;;;;;;5085079;28;20028;-84
2022/01/30 06:56:28;;;;;;;26.77;7.20;;;;;;;;;;5084597;28;20024;-83
2022/01/30 06:58:56;;;;;;;38.42;7.82;;;;;;;;;;5084662;28;20380;-82
2022/01/30 07:01:25;;;;;;;27.88;7.45;;;;;;;;;;5084714;28;20340;-82
2022/01/30 07:03:52;;;;;;;27.77;7.50;;;;;;;;;;5082389;28;20013;-83
2022/01/30 07:06:18;;;;;;;32.03;7.22;;;;;;;;;;5085641;28;20042;-83
2022/01/30 07:08:44;;;;;;;27.65;7.72;;;;;;;;;;5085381;28;20422;-83
2022/01/30 07:11:10;;;;;;;40.90;7.65;;;;;;;;;;5085169;28;20035;-82
2022/01/30 07:13:36;;;;;;;25.05;7.25;;;;;;;;;;5085171;28;20028;-83
2022/01/30 07:16:02;;;;;;;34.20;7.45;;;;;;;;;;5085512;28;20035;-83
2022/01/30 07:18:28;;;;;;;30.52;7.50;;;;;;;;;;5086607;28;20032;-84
2022/01/30 07:20:54;;;;;;;18.38;6.97;;;;;;;;;;5085717;28;20021;-81
2022/01/30 07:23:20;;;;;;;38.92;8.38;;;;;;;;;;5084176;28;20522;-81
2022/01/30 07:25:46;;;;;;;26.17;7.30;;;;;;;;;;5079498;28;20051;-87
2022/01/30 07:28:12;;;;;;;32.42;6.80;;;;;;;;;;5077118;28;20472;-87
2022/01/30 07:30:38;;;;;;;30.98;7.53;;;;;;;;;;5077160;28;20024;-86
2022/01/30 07:33:05;;;;;;;33.53;7.32;;;;;;;;;;5076670;28;20024;-84
2022/01/30 07:35:33;;;;;;;29.65;7.10;;;;;;;;;;5079062;28;20031;-83
2022/01/30 07:37:59;;;;;;;29.45;7.78;;;;;;;;;;5079420;28;20020;-85
2022/01/30 07:40:25;;;;;;;22.23;6.75;;;;;;;;;;5078695;28;20021;-87
2022/01/30 07:42:51;;;;;;;21.95;7.40;;;;;;;;;;5078786;28;20035;-85
2022/01/30 07:45:18;;;;;;;40.15;7.78;;;;;;;;;;5078703;28;20422;-85
2022/01/30 07:47:44;;;;;;;26.30;7.70;;;;;;;;;;5078291;28;20017;-85
2022/01/30 07:50:10;;;;;;;28.08;7.55;;;;;;;;;;5076593;28;20499;-83
2022/01/30 07:52:36;;;;;;;31.98;7.00;;;;;;;;;;5089295;28;20024;-84
2022/01/30 07:55:03;;;;;;;39.83;7.03;;;;;;;;;;5080486;28;20017;-84
2022/01/30 07:57:29;;;;;;;28.65;7.10;;;;;;;;;;5078711;28;20021;-85
2022/01/30 07:59:55;;;;;;;28.17;6.88;;;;;;;;;;5077847;28;20020;-85
2022/01/30 08:02:21;;;;;;;28.65;7.03;;;;;;;;;;5077628;28;20032;-84
2022/01/30 08:04:47;;;;;;;29.35;7.00;;;;;;;;;;5079389;28;20028;-84
2022/01/30 08:07:13;;;;;;;23.08;6.60;;;;;;;;;;5080210;28;20044;-86
2022/01/30 08:09:39;;;;;;;25.95;7.43;;;;;;;;;;5080356;28;20074;-84
2022/01/30 08:12:05;;;;;;;26.05;6.13;;;;;;;;;;5087673;28;20020;-85
2022/01/30 08:14:31;;;;;;;21.70;7.07;;;;;;;;;;5082493;28;20025;-85
2022/01/30 08:16:57;;;;;;;32.15;6.68;;;;;;;;;;5081054;28;20025;-86
2022/01/30 08:19:25;;;;;;;21.30;5.78;;;;;;;;;;5081433;28;20032;-86
2022/01/30 08:21:51;;;;;;;20.95;6.22;;;;;;;;;;5080927;28;20020;-84
2022/01/30 08:24:19;;;;;;;29.75;6.32;;;;;;;;;;5080237;28;20028;-85
2022/01/30 08:26:45;;;;;;;17.20;4.68;;;;;;;;;;5079797;28;20100;-87
2022/01/30 08:29:11;;;;;;;18.38;5.13;;;;;;;;;;5078589;28;20067;-86
2022/01/30 08:31:37;;;;;;;23.15;4.72;;;;;;;;;;5087240;28;20021;-86
2022/01/30 08:34:03;;;;;;;24.88;5.03;;;;;;;;;;5095792;28;20476;-85
2022/01/30 08:36:29;;;;;;;20.30;5.05;;;;;;;;;;5083428;28;20032;-85
2022/01/30 08:38:55;;;;;;;23.45;4.97;;;;;;;;;;5082863;28;20039;-86
2022/01/30 08:41:21;;;;;;;28.05;5.57;;;;;;;;;;5082139;28;20031;-85
2022/01/30 08:43:47;;;;;;;24.58;4.70;;;;;;;;;;5082399;28;20491;-86
2022/01/30 08:46:14;;;;;;;23.33;5.32;;;;;;;;;;5081290;28;20020;-85
2022/01/30 08:48:40;;;;;;;28.95;5.45;;;;;;;;;;5081614;28;20040;-87
2022/01/30 08:51:07;;;;;;;21.27;5.55;;;;;;;;;;5081456;28;20028;-85
2022/01/30 08:53:34;;;;;;;20.70;5.53;;;;;;;;;;5084635;28;20031;-86
2022/01/30 08:56:00;;;;;;;25.38;5.07;;;;;;;;;;5081793;28;20027;-87
2022/01/30 08:58:26;;;;;;;21.13;5.07;;;;;;;;;;5078575;28;20028;-86
2022/01/30 09:00:52;;;;;;;20.15;5.72;;;;;;;;;;5083926;28;20017;-86
2022/01/30 09:03:21;;;;;;;30.30;6.40;;;;;;;;;;5084488;28;20502;-85
2022/01/30 09:05:47;;;;;;;34.10;5.47;;;;;;;;;;5079740;28;20074;-86
2022/01/30 09:08:13;;;;;;;28.77;5.72;;;;;;;;;;5081934;28;20029;-86
2022/01/30 09:10:41;;;;;;;24.08;5.85;;;;;;;;;;5081546;28;20082;-86
2022/01/30 09:13:07;;;;;;;26.40;6.00;;;;;;;;;;5081397;28;20051;-86
2022/01/30 09:15:40;;;;;;;25.05;6.38;;;;;;;;;;5080947;28;20020;-86
2022/01/30 09:18:10;;;;;;;22.17;5.70;;;;;;;;;;5080806;28;20016;-86
2022/01/30 09:20:40;;;;;;;27.17;5.90;;;;;;;;;;5081104;28;20021;-87
2022/01/30 09:23:06;;;;;;;25.30;5.68;;;;;;;;;;5079237;28;20033;-87
2022/01/30 09:25:33;;;;;;;30.77;5.65;;;;;;;;;;5080098;28;20142;-89
2022/01/30 09:27:59;;;;;;;17.98;4.47;;;;;;;;;;5078938;28;20012;-89
2022/01/30 09:30:25;;;;;;;21.67;4.95;;;;;;;;;;5080020;28;20048;-89
2022/01/30 09:32:51;;;;;;;19.33;4.72;;;;;;;;;;5081442;28;20035;-86
2022/01/30 09:35:17;;;;;;;22.08;4.03;;;;;;;;;;5079809;28;20491;-87
2022/01/30 09:37:43;;;;;;;20.58;4.35;;;;;;;;;;5074469;28;20029;-86
2022/01/30 09:40:09;;;;;;;15.80;4.05;;;;;;;;;;5072696;28;20020;-86
2022/01/30 09:42:35;;;;;;;19.05;4.70;;;;;;;;;;5073747;28;20017;-86
2022/01/30 09:45:04;;;;;;;18.10;4.53;;;;;;;;;;5073723;28;20046;-86
2022/01/30 09:47:31;;;;;;;24.30;4.10;;;;;;;;;;5074774;28;20017;-86
2022/01/30 09:49:59;;;;;;;21.42;3.92;;;;;;;;;;5074664;28;20032;-86
2022/01/30 09:52:25;;;;;;;17.52;3.88;;;;;;;;;;5077513;28;20043;-88
2022/01/30 09:54:51;;;;;;;23.80;3.60;;;;;;;;;;5081891;28;20033;-87
2022/01/30 09:57:17;;;;;;;23.85;3.95;;;;;;;;;;5073430;28;20150;-87
2022/01/30 09:59:43;;;;;;;16.40;2.85;;;;;;;;;;5075602;28;20060;-86
2022/01/30 10:02:09;;;;;;;17.35;3.47;;;;;;;;;;5078410;28;20448;-87
2022/01/30 10:04:36;;;;;;;19.92;3.70;;;;;;;;;;5073245;28;20369;-88
2022/01/30 10:07:11;;;;;;;18.75;3.92;;;;;;;;;;5076043;28;20409;-86
2022/01/30 10:09:43;;;;;;;20.73;4.57;;;;;;;;;;5074759;28;20033;-85
2022/01/30 10:12:18;;;;;;;26.05;4.28;;;;;;;;;;5073500;28;20024;-85
2022/01/30 10:14:59;;;;;;;12.43;3.63;;;;;;;;;;5074449;28;20035;-87
2022/01/30 10:17:35;;;;;;;27.63;4.22;;;;;;;;;;5076564;28;20029;-86
2022/01/30 10:20:20;;;;;;;12.40;3.95;;;;;;;;;;5085330;28;20039;-84
2022/01/30 10:22:49;;;;;;;18.23;3.65;;;;;;;;;;5079098;28;20036;-88
2022/01/30 10:25:25;;;;;;;17.00;4.15;;;;;;;;;;5093825;28;20278;-85
2022/01/30 10:28:09;;;;;;;20.80;3.35;;;;;;;;;;5093256;28;20027;-87
2022/01/30 10:30:41;;;;;;;19.45;3.80;;;;;;;;;;5090746;28;20024;-86
2022/01/30 10:33:12;;;;;;;33.85;5.18;;;;;;;;;;5079212;28;20051;-86
2022/01/30 10:35:38;;;;;;;;;;;;;;;;;;5077371;28;20012;-86
2022/01/30 10:38:17;;;;;;;24.15;3.40;;;;;;;;;;5075692;28;20425;-85
2022/01/30 10:40:51;;;;;;;18.88;4.82;;;;;;;;;;5075485;28;20028;-85
2022/01/30 10:43:17;;;;;;;22.73;4.65;;;;;;;;;;5077775;28;20532;-87
2022/01/30 10:45:43;;;;;;;15.27;4.25;;;;;;;;;;5075712;28;20115;-87
2022/01/30 10:48:16;;;;;;;20.92;3.90;;;;;;;;;;5076493;28;20024;-87
2022/01/30 10:50:44;;;;;;;15.25;3.80;;;;;;;;;;5076553;28;20033;-87
2022/01/30 10:53:26;;;;;;;25.13;3.72;;;;;;;;;;5075750;28;20032;-87
2022/01/30 10:55:53;;;;;;;14.50;3.10;;;;;;;;;;5080200;28;20039;-87
2022/01/30 10:58:21;;;;;;;17.20;3.58;;;;;;;;;;5093776;28;20055;-87
2022/01/30 11:00:55;;;;;;;14.45;3.33;;;;;;;;;;5091569;28;20111;-86
2022/01/30 11:03:36;;;;;;;13.40;3.05;;;;;;;;;;5076956;28;20025;-86
2022/01/30 11:06:03;;;;;;;17.02;3.10;;;;;;;;;;5077312;28;20038;-86
2022/01/30 11:08:31;;;;;;;12.48;2.60;;;;;;;;;;5079500;28;20020;-86
2022/01/30 11:11:05;;;;;;;9.48;2.53;;;;;;;;;;5077662;28;20116;-86
2022/01/30 11:13:32;;;;;;;14.68;2.72;;;;;;;;;;5076983;28;20021;-86
2022/01/30 11:16:56;;;;;;;13.63;2.58;;;;;;;;;;5076651;28;20489;-86
2022/01/30 11:18:49;;;;;;;8.85;2.35;;;;;;;;;;5077108;28;20040;-87
2022/01/30 11:21:17;;;;;;;15.13;2.42;;;;;;;;;;5075136;28;20025;-87
2022/01/30 11:23:43;;;;;;;12.32;2.65;;;;;;;;;;5076136;28;20032;-86
2022/01/30 11:26:09;;;;;;;11.02;2.28;;;;;;;;;;5076047;28;20024;-86
2022/01/30 11:28:36;;;;;;;12.98;2.50;;;;;;;;;;5075913;28;20024;-86
2022/01/30 11:31:02;;;;;;;16.50;2.90;;;;;;;;;;5077001;28;20025;-85
2022/01/30 11:33:28;;;;;;;14.73;2.63;;;;;;;;;;5077601;28;20017;-86
2022/01/30 11:35:54;;;;;;;14.57;3.50;;;;;;;;;;5077850;28;20461;-86
2022/01/30 11:38:20;;;;;;;14.10;3.40;;;;;;;;;;5075449;28;20029;-86
2022/01/30 11:41:05;;;;;;;25.45;5.00;;;;;;;;;;5075251;28;20034;-86
2022/01/30 11:43:31;;;;;;;15.65;3.03;;;;;;;;;;5076695;28;20321;-86
2022/01/30 11:46:14;;;;;;;20.20;4.07;;;;;;;;;;5077206;28;20063;-86
2022/01/30 11:48:40;;;;;;;10.98;2.90;;;;;;;;;;5076413;28;20533;-87
2022/01/30 11:51:06;;;;;;;13.75;2.80;;;;;;;;;;5076474;28;20025;-86
2022/01/30 11:53:32;;;;;;;16.20;4.63;;;;;;;;;;5079376;28;20020;-86
2022/01/30 11:56:00;;;;;;;14.90;3.00;;;;;;;;;;5091031;28;20033;-86
2022/01/30 11:58:46;;;;;;;17.60;4.38;;;;;;;;;;5081636;28;20403;-86
2022/01/30 12:01:13;;;;;;;19.85;5.05;;;;;;;;;;5074025;28;20020;-88
2022/01/30 12:03:51;;;;;;;17.52;4.03;;;;;;;;;;5075957;28;20431;-84
2022/01/30 12:06:20;;;;;;;21.38;4.25;;;;;;;;;;5075685;28;20024;-86
2022/01/30 12:08:47;;;;;;;14.85;4.47;;;;;;;;;;5076170;28;20021;-86
2022/01/30 12:11:32;;;;;;;20.00;3.30;;;;;;;;;;5075349;28;20555;-86
2022/01/30 12:13:58;;;;;;;12.32;3.33;;;;;;;;;;5075329;28;20021;-85
2022/01/30 12:16:46;;;;;;;15.18;3.42;;;;;;;;;;5067453;28;20029;-86
2022/01/30 12:19:13;;;;;;;13.43;2.47;;;;;;;;;;5055693;28;20024;-86
2022/01/30 12:21:39;;;;;;;16.83;3.63;;;;;;;;;;5055205;28;20033;-86
2022/01/30 12:24:22;;;;;;;12.40;3.28;;;;;;;;;;5053309;28;20043;-86
2022/01/30 12:26:52;;;;;;;19.90;3.10;;;;;;;;;;5056478;28;20040;-85
2022/01/30 12:29:38;;;;;;;14.35;2.72;;;;;;;;;;5054218;28;20048;-86
2022/01/30 12:34:48;;;;;;;17.90;2.85;;;;;;;;;;5055475;28;20091;-86
2022/01/30 12:37:20;;;;;;;21.02;3.65;;;;;;;;;;5053039;28;20021;-86
2022/01/30 12:39:46;;;;;;;14.48;2.53;;;;;;;;;;5052624;28;20028;-86
2022/01/30 12:42:16;;;;;;;11.18;2.95;;;;;;;;;;5054134;28;20029;-85
2022/01/30 12:44:42;;;;;;;15.30;2.70;;;;;;;;;;5055666;28;20048;-85
2022/01/30 12:47:08;;;;;;;11.73;3.08;;;;;;;;;;5053042;28;20021;-86
2022/01/30 12:49:42;;;;;;;18.27;3.08;;;;;;;;;;5055211;28;20028;-87
2022/01/30 12:52:16;;;;;;;17.77;3.33;;;;;;;;;;5054884;28;20021;-86
2022/01/30 12:54:44;;;;;;;18.73;2.55;;;;;;;;;;5074368;28;20020;-87
2022/01/30 12:57:10;;;;;;;15.10;2.78;;;;;;;;;;5074517;28;20040;-86
2022/01/30 12:59:36;;;;;;;14.15;2.67;;;;;;;;;;5074518;28;20104;-87
2022/01/30 13:02:06;;;;;;;14.70;2.63;;;;;;;;;;5072667;28;20031;-86
2022/01/30 13:04:32;;;;;;;19.30;3.03;;;;;;;;;;5073461;28;20025;-86
2022/01/30 13:06:58;;;;;;;12.80;2.55;;;;;;;;;;5074665;28;20024;-87
2022/01/30 13:09:26;;;;;;;18.75;2.65;;;;;;;;;;5073249;28;20035;-86
2022/01/30 13:11:55;;;;;;;7.63;2.15;;;;;;;;;;5074402;28;20024;-87
2022/01/30 13:14:22;;;;;;;14.18;2.85;;;;;;;;;;5072941;28;20155;-86
2022/01/30 13:16:52;;;;;;;13.95;3.03;;;;;;;;;;5060794;28;20029;-86
2022/01/30 13:19:37;;;;;;;7.13;2.10;;;;;;;;;;5052567;28;20405;-86
2022/01/30 13:22:07;;;;;;;14.45;2.67;;;;;;;;;;5054154;28;20033;-85
2022/01/30 13:24:34;;;;;;;13.80;3.10;;;;;;;;;;5054181;28;20033;-86
2022/01/30 13:27:04;;;;;;;14.20;2.80;;;;;;;;;;5052738;28;20120;-86
2022/01/30 13:29:33;;;;;;;15.13;3.03;;;;;;;;;;5054208;28;20029;-85
2022/01/30 13:32:00;;;;;;;15.00;2.72;;;;;;;;;;5052594;28;20040;-86
2022/01/30 13:34:29;;;;;;;11.90;2.55;;;;;;;;;;5053638;28;20029;-87
2022/01/30 13:37:01;;;;;;;11.90;2.10;;;;;;;;;;5052326;28;20429;-87
2022/01/30 13:39:39;;;;;;;14.05;3.13;;;;;;;;;;5053702;28;20448;-87
2022/01/30 13:42:31;;;;;;;16.55;2.38;;;;;;;;;;5053260;28;20028;-87
2022/01/30 13:46:54;;;;;;;9.95;1.92;;;;;;;;;;5053990;28;20040;-87
2022/01/30 13:47:56;;;;;;;12.77;1.80;;;;;;;;;;5054352;28;20037;-86
2022/01/30 13:50:27;;;;;;;14.75;3.22;;;;;;;;;;5052090;28;20029;-87
2022/01/30 13:53:00;;;;;;;8.90;2.53;;;;;;;;;;5053368;28;20090;-86
2022/01/30 13:55:26;;;;;;;12.98;2.35;;;;;;;;;;5060231;28;20433;-87
2022/01/30 13:57:56;;;;;;;12.60;2.15;;;;;;;;;;5060115;28;20029;-86
2022/01/30 14:00:23;;;;;;;8.75;1.95;;;;;;;;;;5056416;28;20087;-87
2022/01/30 14:02:52;;;;;;;7.00;2.47;;;;;;;;;;5057580;28;20025;-86
2022/01/30 14:05:25;;;;;;;10.30;2.60;;;;;;;;;;5057979;28;20021;-86
2022/01/30 14:07:52;;;;;;;7.90;2.33;;;;;;;;;;5057996;28;20040;-87
2022/01/30 14:10:19;;;;;;;10.00;2.47;;;;;;;;;;5057966;28;20025;-87
2022/01/30 14:12:45;;;;;;;8.85;1.63;;;;;;;;;;5072043;28;20024;-87
2022/01/30 14:15:12;;;;;;;8.15;2.40;;;;;;;;;;5080760;28;20039;-88
2022/01/30 14:17:42;;;;;;;8.20;1.42;;;;;;;;;;5080528;28;20035;-88
2022/01/30 14:20:11;;;;;;;10.90;2.05;;;;;;;;;;5079444;28;20020;-87
2022/01/30 14:22:37;;;;;;;7.10;1.88;;;;;;;;;;5079886;28;20001;-87
2022/01/30 14:25:08;;;;;;;11.30;1.60;;;;;;;;;;5065259;28;20234;-86
2022/01/30 14:27:34;;;;;;;;;;;;;;;;;;5057799;28;20024;-87
2022/01/30 14:30:04;;;;;;;5.85;1.50;;;;;;;;;;5057898;28;19909;-86
2022/01/30 14:32:31;;;;;;;11.07;2.03;;;;;;;;;;5056488;28;20024;-86
2022/01/30 14:34:57;;;;;;;7.63;2.28;;;;;;;;;;5057647;28;20017;-87
2022/01/30 14:37:23;;;;;;;10.70;1.60;;;;;;;;;;5059128;28;20032;-86
2022/01/30 14:39:56;;;;;;;9.43;1.80;;;;;;;;;;5057685;28;20029;-86
2022/01/30 14:42:22;;;;;;;10.48;2.78;;;;;;;;;;5057252;28;20426;-85
2022/01/30 14:44:49;;;;;;;11.35;2.95;;;;;;;;;;5057617;28;20047;-85
2022/01/30 14:47:15;;;;;;;6.22;1.80;;;;;;;;;;5057832;28;20047;-86
2022/01/30 14:49:41;;;;;;;10.43;1.75;;;;;;;;;;5056618;28;20032;-86
2022/01/30 14:52:08;;;;;;;6.15;1.80;;;;;;;;;;5058671;28;20025;-86
2022/01/30 14:54:35;;;;;;;8.38;2.03;;;;;;;;;;5075959;28;20051;-86
2022/01/30 14:57:01;;;;;;;10.48;2.38;;;;;;;;;;5078472;28;20024;-87
2022/01/30 14:59:31;;;;;;;10.98;2.63;;;;;;;;;;5076719;28;20025;-86
2022/01/30 15:01:57;;;;;;;7.25;1.60;;;;;;;;;;5076945;28;20025;-87
2022/01/30 15:04:24;;;;;;;8.35;2.00;;;;;;;;;;5084927;28;20028;-86
2022/01/30 15:06:50;;;;;;;8.10;2.30;;;;;;;;;;5084464;28;20119;-86
2022/01/30 15:09:16;;;;;;;9.07;1.70;;;;;;;;;;5076029;28;20038;-86
2022/01/30 15:11:42;;;;;;;11.75;2.13;;;;;;;;;;5077671;28;20036;-86
2022/01/30 15:14:10;;;;;;;9.73;1.85;;;;;;;;;;5076865;28;20056;-85
2022/01/30 15:16:48;;;;;;;10.60;2.08;;;;;;;;;;5075386;28;20021;-86
2022/01/30 15:19:14;;;;;;;5.90;2.05;;;;;;;;;;5075717;28;20020;-84
2022/01/30 15:21:41;;;;;;;10.27;2.58;;;;;;;;;;5075268;28;20035;-84
2022/01/30 15:24:07;;;;;;;12.32;2.10;;;;;;;;;;5076403;28;20028;-84
2022/01/30 15:26:34;;;;;;;8.68;2.13;;;;;;;;;;5074484;28;20484;-86
2022/01/30 15:29:00;;;;;;;10.80;2.92;;;;;;;;;;5080719;28;20063;-86
2022/01/30 15:31:26;;;;;;;8.05;2.05;;;;;;;;;;5076229;28;20021;-86
2022/01/30 15:33:53;;;;;;;10.07;2.78;;;;;;;;;;5076266;28;20028;-86
2022/01/30 15:36:19;;;;;;;8.77;2.08;;;;;;;;;;5073957;28;20048;-85
2022/01/30 15:38:45;;;;;;;13.30;3.13;;;;;;;;;;5073764;28;20031;-85
2022/01/30 15:41:11;;;;;;;8.65;3.00;;;;;;;;;;5073833;28;20388;-86